Time;durP1;ratioP1;P1;durP2;ratioP2;P2;SDS_P1;SDS_P2;PMS_P1;PMS_P2;Temp;Humidity;BMP_temperature;BMP_pressure;BME280_temperature;BME280_humidity;BME280_pressure;Samples;Min_cycle;Max_cycle;Signal;HPM_P1;HPM_P2
2024/03/18 00:01:40;;;;;;;11.48;2.08;;;;;;;;;;6249044;22;20011;-94
2024/03/18 00:04:05;;;;;;;12.23;2.50;;;;;;;;;;6247865;22;20003;-93
2024/03/18 00:06:30;;;;;;;17.90;2.77;;;;;;;;;;6246535;22;19996;-92
2024/03/18 00:08:56;;;;;;;7.85;2.60;;;;;;;;;;6275056;22;20255;-92
2024/03/18 00:11:21;;;;;;;16.00;2.50;;;;;;;;;;6248202;22;20428;-91
2024/03/18 00:13:46;;;;;;;13.03;2.03;;;;;;;;;;6275041;22;20003;-92
2024/03/18 00:16:11;;;;;;;15.35;2.25;;;;;;;;;;6274832;22;20227;-92
2024/03/18 00:18:36;;;;;;;16.38;2.78;;;;;;;;;;6275066;22;20007;-92
2024/03/18 00:21:02;;;;;;;14.07;2.70;;;;;;;;;;6247943;22;19996;-92
2024/03/18 00:23:27;;;;;;;12.32;2.17;;;;;;;;;;6274800;22;20217;-91
2024/03/18 00:25:52;;;;;;;11.27;2.38;;;;;;;;;;6274566;22;20015;-92
2024/03/18 00:28:18;;;;;;;14.23;1.98;;;;;;;;;;6275197;22;20000;-92
2024/03/18 00:30:44;;;;;;;14.10;2.33;;;;;;;;;;6247978;22;19999;-92
2024/03/18 00:33:09;;;;;;;11.13;2.20;;;;;;;;;;6248027;22;20058;-93
2024/03/18 00:35:34;;;;;;;12.73;2.28;;;;;;;;;;6274753;22;20071;-92
2024/03/18 00:37:59;;;;;;;12.02;2.05;;;;;;;;;;6274879;22;20334;-92
2024/03/18 00:40:25;;;;;;;19.13;2.53;;;;;;;;;;6248218;22;19996;-92
2024/03/18 00:42:50;;;;;;;15.48;3.53;;;;;;;;;;6274939;22;20153;-93
2024/03/18 00:45:16;;;;;;;13.70;2.30;;;;;;;;;;6275026;22;19992;-92
2024/03/18 00:47:41;;;;;;;15.70;2.30;;;;;;;;;;6275304;22;20221;-93
2024/03/18 00:50:11;;;;;;;10.68;2.08;;;;;;;;;;6248014;22;20010;-92
2024/03/18 00:52:37;;;;;;;9.23;1.75;;;;;;;;;;6274573;22;20003;-92
2024/03/18 00:55:02;;;;;;;10.32;2.65;;;;;;;;;;6274755;22;19996;-93
2024/03/18 00:57:27;;;;;;;11.90;2.75;;;;;;;;;;6274724;22;19995;-93
2024/03/18 00:59:52;;;;;;;15.87;2.57;;;;;;;;;;6274820;22;20003;-93
2024/03/18 01:02:18;;;;;;;14.97;2.70;;;;;;;;;;6274920;22;20346;-92
2024/03/18 01:04:43;;;;;;;9.35;2.53;;;;;;;;;;6276384;22;20249;-92
2024/03/18 01:07:08;;;;;;;9.80;2.53;;;;;;;;;;6249393;22;20042;-92
2024/03/18 01:09:34;;;;;;;13.90;2.80;;;;;;;;;;6276853;22;20014;-92
2024/03/18 01:11:59;;;;;;;18.17;2.92;;;;;;;;;;6276650;22;20249;-93
2024/03/18 01:14:24;;;;;;;16.90;3.23;;;;;;;;;;6249341;22;20073;-92
2024/03/18 01:16:49;;;;;;;16.25;5.22;;;;;;;;;;6249589;22;20536;-92
2024/03/18 01:19:15;;;;;;;13.38;3.00;;;;;;;;;;6249259;22;20409;-93
2024/03/18 01:21:40;;;;;;;17.63;3.17;;;;;;;;;;6249762;22;20507;-93
2024/03/18 01:24:05;;;;;;;16.20;2.85;;;;;;;;;;6276549;22;20072;-93
2024/03/18 01:26:30;;;;;;;14.18;3.15;;;;;;;;;;6249335;22;20011;-92
2024/03/18 01:28:56;;;;;;;12.85;2.20;;;;;;;;;;6249553;22;20026;-93
2024/03/18 01:31:21;;;;;;;8.00;2.33;;;;;;;;;;6249481;22;20411;-92
2024/03/18 01:33:47;;;;;;;13.73;3.22;;;;;;;;;;6276512;22;20304;-92
2024/03/18 01:36:12;;;;;;;12.30;2.85;;;;;;;;;;6249739;22;19995;-92
2024/03/18 01:38:37;;;;;;;8.85;2.70;;;;;;;;;;6249331;22;20055;-92
2024/03/18 01:41:03;;;;;;;17.55;3.53;;;;;;;;;;6249253;22;20000;-92
2024/03/18 01:43:28;;;;;;;8.73;2.53;;;;;;;;;;6249262;22;20087;-93
2024/03/18 01:45:53;;;;;;;14.53;2.73;;;;;;;;;;6276464;22;20455;-93
2024/03/18 01:48:18;;;;;;;21.77;2.97;;;;;;;;;;6276376;22;20683;-92
2024/03/18 01:50:45;;;;;;;17.33;3.72;;;;;;;;;;6276333;22;20247;-93
2024/03/18 01:53:10;;;;;;;10.35;2.50;;;;;;;;;;6276143;22;20099;-92
2024/03/18 01:55:36;;;;;;;10.45;2.60;;;;;;;;;;6276112;22;19999;-92
2024/03/18 01:58:01;;;;;;;18.17;3.45;;;;;;;;;;6276315;22;20010;-93
2024/03/18 02:00:35;;;;;;;16.92;2.85;;;;;;;;;;6276369;22;19996;-92
2024/03/18 02:03:01;;;;;;;14.65;3.17;;;;;;;;;;6249548;22;19996;-92
2024/03/18 02:05:26;;;;;;;14.90;2.40;;;;;;;;;;6275935;22;19995;-93
2024/03/18 02:07:52;;;;;;;12.67;2.43;;;;;;;;;;6276293;22;19992;-92
2024/03/18 02:10:17;;;;;;;20.65;3.05;;;;;;;;;;6276312;22;20235;-92
2024/03/18 02:12:42;;;;;;;13.38;2.55;;;;;;;;;;6249076;22;20122;-92
2024/03/18 02:15:08;;;;;;;17.20;2.40;;;;;;;;;;6275767;22;20342;-93
2024/03/18 02:17:33;;;;;;;11.82;2.20;;;;;;;;;;6275823;22;20050;-91
2024/03/18 02:19:58;;;;;;;13.13;3.15;;;;;;;;;;6248913;22;20007;-91
2024/03/18 02:22:23;;;;;;;13.57;2.37;;;;;;;;;;6276020;22;20049;-92
2024/03/18 02:24:49;;;;;;;16.87;4.90;;;;;;;;;;6275780;22;20307;-92
2024/03/18 02:27:14;;;;;;;18.30;3.17;;;;;;;;;;6275760;22;20245;-92
2024/03/18 02:29:40;;;;;;;22.63;3.38;;;;;;;;;;6276356;22;20256;-92
2024/03/18 02:32:05;;;;;;;13.45;2.30;;;;;;;;;;6275976;22;20382;-92
2024/03/18 02:34:31;;;;;;;12.73;2.70;;;;;;;;;;6248854;22;20054;-92
2024/03/18 02:36:57;;;;;;;22.20;2.90;;;;;;;;;;6275988;22;19998;-92
2024/03/18 02:39:22;;;;;;;14.95;2.40;;;;;;;;;;6275663;22;20000;-91
2024/03/18 02:41:51;;;;;;;12.32;2.85;;;;;;;;;;6275594;22;20015;-92
2024/03/18 02:44:16;;;;;;;9.45;1.60;;;;;;;;;;6276064;22;20000;-92
2024/03/18 02:46:42;;;;;;;7.30;1.95;;;;;;;;;;6275884;22;20000;-92
2024/03/18 02:49:07;;;;;;;12.52;3.00;;;;;;;;;;6275658;22;20326;-92
2024/03/18 02:51:33;;;;;;;14.18;2.33;;;;;;;;;;6248360;22;20415;-92
2024/03/18 02:53:58;;;;;;;9.57;1.73;;;;;;;;;;6275857;22;20014;-91
2024/03/18 02:56:23;;;;;;;9.02;1.90;;;;;;;;;;6275700;22;19996;-92
2024/03/18 02:58:49;;;;;;;12.30;2.63;;;;;;;;;;6275446;22;20007;-93
2024/03/18 03:01:14;;;;;;;7.20;1.90;;;;;;;;;;6275544;22;20216;-92
2024/03/18 03:03:39;;;;;;;9.37;2.03;;;;;;;;;;6275658;22;20228;-92
2024/03/18 03:06:06;;;;;;;16.42;3.15;;;;;;;;;;6248036;22;20240;-93
2024/03/18 03:08:31;;;;;;;10.45;2.55;;;;;;;;;;6275611;22;20419;-92
2024/03/18 03:10:56;;;;;;;7.73;2.27;;;;;;;;;;6275793;22;19992;-92
2024/03/18 03:13:21;;;;;;;10.63;2.17;;;;;;;;;;6275870;22;20231;-91
2024/03/18 03:15:47;;;;;;;10.52;2.45;;;;;;;;;;6275345;22;20205;-92
2024/03/18 03:18:14;;;;;;;11.93;2.35;;;;;;;;;;6275254;22;20003;-92
2024/03/18 03:20:39;;;;;;;13.93;4.93;;;;;;;;;;6275466;22;20002;-92
2024/03/18 03:23:04;;;;;;;9.32;2.25;;;;;;;;;;6275393;22;20023;-93
2024/03/18 03:25:29;;;;;;;10.83;2.90;;;;;;;;;;6275524;22;20433;-92
2024/03/18 03:27:58;;;;;;;14.63;2.73;;;;;;;;;;6248411;22;20232;-92
2024/03/18 03:30:23;;;;;;;11.35;2.22;;;;;;;;;;6275385;22;20217;-93
2024/03/18 03:32:48;;;;;;;20.08;5.15;;;;;;;;;;6275169;22;20041;-92
2024/03/18 03:35:14;;;;;;;10.90;2.20;;;;;;;;;;6275091;22;20466;-93
2024/03/18 03:37:39;;;;;;;17.70;3.40;;;;;;;;;;6275300;22;20251;-91
2024/03/18 03:40:05;;;;;;;9.73;2.20;;;;;;;;;;6275362;22;19995;-92
2024/03/18 03:42:30;;;;;;;11.63;2.45;;;;;;;;;;6248251;22;20572;-92
2024/03/18 03:44:55;;;;;;;11.80;2.83;;;;;;;;;;6248185;22;20093;-93
2024/03/18 03:47:21;;;;;;;14.65;2.80;;;;;;;;;;6275145;22;20002;-93
2024/03/18 03:49:46;;;;;;;7.20;2.00;;;;;;;;;;6248067;22;20062;-92
2024/03/18 03:52:12;;;;;;;13.55;2.35;;;;;;;;;;6248219;22;20010;-92
2024/03/18 03:54:37;;;;;;;18.52;2.97;;;;;;;;;;6274949;22;19992;-92
2024/03/18 03:57:02;;;;;;;14.70;3.33;;;;;;;;;;6248169;22;20384;-92
2024/03/18 03:59:27;;;;;;;18.00;3.47;;;;;;;;;;6247915;22;20389;-92
2024/03/18 04:01:54;;;;;;;10.30;2.78;;;;;;;;;;6275323;22;19996;-92
2024/03/18 04:04:19;;;;;;;11.55;3.15;;;;;;;;;;6248342;22;20000;-92
2024/03/18 04:06:45;;;;;;;16.83;3.27;;;;;;;;;;6274756;22;19992;-92
2024/03/18 04:09:10;;;;;;;20.98;3.65;;;;;;;;;;6274947;22;20217;-91
2024/03/18 04:11:36;;;;;;;10.57;3.17;;;;;;;;;;6247806;22;20009;-93
2024/03/18 04:14:01;;;;;;;15.98;3.70;;;;;;;;;;6275014;22;20479;-91
2024/03/18 04:16:27;;;;;;;23.30;3.47;;;;;;;;;;6274582;22;19996;-91
2024/03/18 04:18:52;;;;;;;34.22;4.55;;;;;;;;;;6247591;22;20249;-92
2024/03/18 04:21:18;;;;;;;11.50;2.72;;;;;;;;;;6275055;22;20079;-91
2024/03/18 04:23:43;;;;;;;11.57;2.80;;;;;;;;;;6247859;22;20000;-91
2024/03/18 04:26:08;;;;;;;11.93;2.97;;;;;;;;;;6248048;22;20003;-91
2024/03/18 04:28:34;;;;;;;13.68;3.10;;;;;;;;;;6275015;22;20000;-92
2024/03/18 04:31:11;;;;;;;12.23;3.00;;;;;;;;;;6274749;22;20023;-93
2024/03/18 04:33:36;;;;;;;17.42;4.18;;;;;;;;;;6274770;22;20343;-91
2024/03/18 04:36:02;;;;;;;20.85;3.70;;;;;;;;;;6247748;22;19983;-92
2024/03/18 04:38:31;;;;;;;17.58;3.75;;;;;;;;;;6248389;22;20007;-92
2024/03/18 04:40:58;;;;;;;23.27;5.40;;;;;;;;;;6276688;22;20000;-91
2024/03/18 04:43:23;;;;;;;11.40;3.20;;;;;;;;;;6276891;22;20003;-93
2024/03/18 04:45:48;;;;;;;11.63;3.30;;;;;;;;;;6276961;22;20086;-91
2024/03/18 04:48:13;;;;;;;11.77;3.35;;;;;;;;;;6249805;22;20000;-92
2024/03/18 04:50:39;;;;;;;16.07;3.83;;;;;;;;;;6249383;22;20054;-92
2024/03/18 04:53:04;;;;;;;15.32;3.58;;;;;;;;;;6249793;22;20749;-92
2024/03/18 04:55:29;;;;;;;32.03;6.30;;;;;;;;;;6249481;22;20411;-91
2024/03/18 04:57:55;;;;;;;15.40;4.22;;;;;;;;;;6249653;22;20007;-91
2024/03/18 05:00:22;;;;;;;19.67;4.07;;;;;;;;;;6249482;22;20045;-91
2024/03/18 05:02:47;;;;;;;11.52;4.15;;;;;;;;;;6276945;22;20054;-92
2024/03/18 05:05:13;;;;;;;12.47;3.30;;;;;;;;;;6276791;22;19996;-92
2024/03/18 05:07:39;;;;;;;15.88;4.30;;;;;;;;;;6249253;22;20249;-91
2024/03/18 05:10:04;;;;;;;11.20;4.03;;;;;;;;;;6276801;22;20003;-92
2024/03/18 05:12:30;;;;;;;13.65;3.67;;;;;;;;;;6249436;22;20000;-92
2024/03/18 05:14:55;;;;;;;16.02;5.43;;;;;;;;;;6250069;22;19999;-92
2024/03/18 05:17:22;;;;;;;14.55;3.97;;;;;;;;;;6249452;22;20033;-92
2024/03/18 05:19:48;;;;;;;10.32;3.72;;;;;;;;;;6276572;22;20006;-91
2024/03/18 05:22:13;;;;;;;8.27;3.13;;;;;;;;;;6276783;22;20035;-92
2024/03/18 05:24:43;;;;;;;8.73;3.72;;;;;;;;;;6249510;22;20427;-92
2024/03/18 05:27:08;;;;;;;13.82;4.10;;;;;;;;;;6276424;22;19991;-92
2024/03/18 05:29:33;;;;;;;16.27;4.07;;;;;;;;;;6276758;22;19992;-92
2024/03/18 05:32:05;;;;;;;17.07;4.13;;;;;;;;;;6276220;22;20007;-91
2024/03/18 05:34:30;;;;;;;16.35;3.55;;;;;;;;;;6276596;22;20224;-92
2024/03/18 05:36:55;;;;;;;10.35;3.08;;;;;;;;;;6276323;22;20000;-92
2024/03/18 05:39:20;;;;;;;10.90;3.20;;;;;;;;;;6276459;22;19999;-92
2024/03/18 05:41:47;;;;;;;17.13;4.80;;;;;;;;;;6276268;22;20278;-92
2024/03/18 05:44:12;;;;;;;16.35;4.38;;;;;;;;;;6276319;22;20002;-92
2024/03/18 05:46:38;;;;;;;8.33;3.47;;;;;;;;;;6276836;22;19991;-92
2024/03/18 05:49:04;;;;;;;13.80;4.45;;;;;;;;;;6276393;22;20225;-92
2024/03/18 05:51:29;;;;;;;15.32;4.47;;;;;;;;;;6275280;22;19998;-91
2024/03/18 05:53:54;;;;;;;14.43;4.40;;;;;;;;;;6276238;22;20026;-93
2024/03/18 05:56:20;;;;;;;13.23;2.85;;;;;;;;;;6276185;22;20213;-93
2024/03/18 05:58:45;;;;;;;16.90;3.35;;;;;;;;;;6276002;22;20003;-91
2024/03/18 06:01:10;;;;;;;19.53;3.40;;;;;;;;;;6276123;22;20078;-92
2024/03/18 06:03:47;;;;;;;8.75;2.65;;;;;;;;;;6249590;22;20225;-93
2024/03/18 06:06:13;;;;;;;7.20;2.45;;;;;;;;;;6248916;22;20024;-91
2024/03/18 06:08:38;;;;;;;12.65;2.85;;;;;;;;;;6276248;22;19995;-91
2024/03/18 06:11:04;;;;;;;6.57;2.30;;;;;;;;;;6275758;22;20317;-92
2024/03/18 06:13:30;;;;;;;4.78;2.00;;;;;;;;;;6276161;22;19999;-92
2024/03/18 06:15:55;;;;;;;7.75;2.08;;;;;;;;;;6276035;22;20061;-92
2024/03/18 06:18:20;;;;;;;9.07;2.45;;;;;;;;;;6276136;22;20014;-92
2024/03/18 06:20:50;;;;;;;9.07;2.37;;;;;;;;;;6276040;22;20471;-91
2024/03/18 06:23:16;;;;;;;6.68;1.83;;;;;;;;;;6276058;22;20686;-92
2024/03/18 06:26:03;;;;;;;8.82;2.17;;;;;;;;;;6248805;22;20027;-92
2024/03/18 06:28:29;;;;;;;11.95;2.55;;;;;;;;;;6249317;22;20010;-92
2024/03/18 06:30:55;;;;;;;6.55;2.13;;;;;;;;;;6248732;22;20023;-91
2024/03/18 06:33:21;;;;;;;5.70;2.45;;;;;;;;;;6248928;22;20469;-91
2024/03/18 06:35:47;;;;;;;5.40;1.65;;;;;;;;;;6248816;22;19996;-92
2024/03/18 06:38:12;;;;;;;6.45;1.80;;;;;;;;;;6248684;22;20007;-93
2024/03/18 06:40:39;;;;;;;12.23;2.55;;;;;;;;;;6276134;22;20365;-91
2024/03/18 06:43:04;;;;;;;7.03;2.20;;;;;;;;;;6275941;22;20003;-91
2024/03/18 06:45:29;;;;;;;6.82;1.95;;;;;;;;;;6276371;22;20347;-91
2024/03/18 06:47:54;;;;;;;18.23;2.15;;;;;;;;;;6249104;22;19996;-92
2024/03/18 06:50:20;;;;;;;10.67;2.27;;;;;;;;;;6275803;22;20004;-92
2024/03/18 06:52:46;;;;;;;6.22;1.80;;;;;;;;;;6275830;22;20235;-91
2024/03/18 06:55:11;;;;;;;11.13;2.53;;;;;;;;;;6276503;22;20075;-92
2024/03/18 06:57:36;;;;;;;6.70;2.50;;;;;;;;;;6275750;22;20029;-91
2024/03/18 07:00:04;;;;;;;9.85;2.47;;;;;;;;;;6248759;22;20300;-91
2024/03/18 07:02:30;;;;;;;9.73;2.53;;;;;;;;;;6275517;22;19988;-91
2024/03/18 07:04:55;;;;;;;7.13;2.60;;;;;;;;;;6248475;22;20046;-92
2024/03/18 07:07:21;;;;;;;12.50;3.22;;;;;;;;;;6248560;22;19999;-92
2024/03/18 07:09:46;;;;;;;12.23;2.92;;;;;;;;;;6275743;22;19998;-92
2024/03/18 07:12:11;;;;;;;9.80;2.03;;;;;;;;;;6248680;22;20007;-93
2024/03/18 07:14:37;;;;;;;11.37;2.17;;;;;;;;;;6248600;22;20232;-92
2024/03/18 07:17:03;;;;;;;10.70;2.65;;;;;;;;;;6248228;22;20216;-93
2024/03/18 07:19:29;;;;;;;13.05;2.75;;;;;;;;;;6248425;22;20017;-93
2024/03/18 07:21:56;;;;;;;9.90;2.38;;;;;;;;;;6248504;22;20027;-93
2024/03/18 07:24:21;;;;;;;5.80;2.35;;;;;;;;;;6275449;22;20007;-92
2024/03/18 07:26:46;;;;;;;9.17;2.17;;;;;;;;;;6248059;22;20061;-93
2024/03/18 07:29:12;;;;;;;5.57;2.33;;;;;;;;;;6248610;22;20655;-92
2024/03/18 07:31:37;;;;;;;9.55;2.50;;;;;;;;;;6248179;22;19999;-92
2024/03/18 07:34:03;;;;;;;7.90;3.10;;;;;;;;;;6248241;22;20083;-91
2024/03/18 07:36:28;;;;;;;13.02;2.45;;;;;;;;;;6275342;22;19995;-92
2024/03/18 07:38:53;;;;;;;10.27;2.63;;;;;;;;;;6248159;22;20311;-93
2024/03/18 07:41:18;;;;;;;11.77;3.67;;;;;;;;;;6247890;22;20003;-92
2024/03/18 07:43:44;;;;;;;8.45;2.63;;;;;;;;;;6248242;22;20007;-92
2024/03/18 07:46:09;;;;;;;5.95;2.25;;;;;;;;;;6275004;22;19996;-93
2024/03/18 07:48:34;;;;;;;9.48;2.47;;;;;;;;;;6275279;22;19995;-92
2024/03/18 07:51:02;;;;;;;8.60;2.57;;;;;;;;;;6248090;22;20045;-92
2024/03/18 07:53:28;;;;;;;3.70;1.77;;;;;;;;;;6218177;23;20233;-91
2024/03/18 07:56:00;;;;;;;4.60;2.03;;;;;;;;;;6244461;22;20000;-93
2024/03/18 07:58:26;;;;;;;6.63;1.58;;;;;;;;;;6244481;23;20094;-92
2024/03/18 08:00:51;;;;;;;4.88;1.67;;;;;;;;;;6244948;23;20028;-92
2024/03/18 08:03:16;;;;;;;8.43;1.57;;;;;;;;;;6244357;23;19996;-93
2024/03/18 08:05:42;;;;;;;5.77;1.73;;;;;;;;;;6244314;22;20214;-92
2024/03/18 08:08:07;;;;;;;4.37;1.37;;;;;;;;;;6244400;23;20216;-91
2024/03/18 08:10:32;;;;;;;3.87;1.40;;;;;;;;;;6244552;23;20245;-92
2024/03/18 08:12:58;;;;;;;10.30;1.50;;;;;;;;;;6244179;23;20234;-93
2024/03/18 08:15:23;;;;;;;8.20;1.58;;;;;;;;;;6244682;22;20206;-92
2024/03/18 08:17:48;;;;;;;8.60;1.30;;;;;;;;;;6244466;23;20004;-93
2024/03/18 08:20:14;;;;;;;3.97;1.02;;;;;;;;;;6244449;23;20458;-93
2024/03/18 08:22:39;;;;;;;8.90;1.65;;;;;;;;;;6217755;23;20011;-89
2024/03/18 08:25:05;;;;;;;5.03;1.00;;;;;;;;;;6245190;23;20095;-95
2024/03/18 08:27:32;;;;;;;4.20;1.08;;;;;;;;;;6243314;22;20229;-94
2024/03/18 08:29:57;;;;;;;4.55;1.02;;;;;;;;;;6243330;23;20076;-95
2024/03/18 08:32:22;;;;;;;3.70;0.90;;;;;;;;;;6242710;23;20032;-95
2024/03/18 08:34:48;;;;;;;3.85;0.88;;;;;;;;;;6242935;23;20069;-95
2024/03/18 08:37:13;;;;;;;4.68;1.27;;;;;;;;;;6242512;22;19996;-93
2024/03/18 08:39:39;;;;;;;3.85;1.13;;;;;;;;;;6242822;23;20406;-93
2024/03/18 08:42:05;;;;;;;6.38;0.98;;;;;;;;;;6242996;23;20015;-94
2024/03/18 08:44:30;;;;;;;3.20;0.65;;;;;;;;;;6242923;23;19996;-95
2024/03/18 08:46:57;;;;;;;5.50;0.70;;;;;;;;;;6242493;22;20004;-94
2024/03/18 08:49:23;;;;;;;3.90;0.80;;;;;;;;;;6242559;23;20314;-95
2024/03/18 08:51:49;;;;;;;4.72;0.70;;;;;;;;;;6243001;23;20358;-94
2024/03/18 08:54:16;;;;;;;5.35;1.25;;;;;;;;;;6244310;23;19992;-94
2024/03/18 08:56:41;;;;;;;4.45;0.95;;;;;;;;;;6243163;22;20007;-94
2024/03/18 08:59:06;;;;;;;4.65;0.90;;;;;;;;;;6242797;23;20001;-95
2024/03/18 09:01:31;;;;;;;2.37;0.60;;;;;;;;;;6243225;23;19992;-95
2024/03/18 09:03:57;;;;;;;2.50;0.70;;;;;;;;;;6242588;23;20229;-94
2024/03/18 09:06:23;;;;;;;4.30;0.60;;;;;;;;;;6243228;22;20297;-94
2024/03/18 09:08:48;;;;;;;5.65;0.50;;;;;;;;;;6243837;23;20007;-94
2024/03/18 09:11:13;;;;;;;3.33;0.67;;;;;;;;;;6242298;23;20323;-94
2024/03/18 09:13:42;;;;;;;2.17;0.50;;;;;;;;;;6242293;23;20754;-93
2024/03/18 09:16:07;;;;;;;4.00;0.80;;;;;;;;;;6216616;23;20214;-92
2024/03/18 09:18:32;;;;;;;7.25;1.33;;;;;;;;;;6216753;23;20016;-91
2024/03/18 09:20:58;;;;;;;3.50;0.50;;;;;;;;;;6216947;23;20024;-91
2024/03/18 09:23:23;;;;;;;4.63;0.70;;;;;;;;;;6243381;23;19996;-91
2024/03/18 09:25:48;;;;;;;2.75;0.70;;;;;;;;;;6218014;23;20417;-91
2024/03/18 09:28:14;;;;;;;5.50;0.80;;;;;;;;;;6245479;23;20027;-91
2024/03/18 09:30:39;;;;;;;4.18;0.65;;;;;;;;;;6243632;23;20054;-91
2024/03/18 09:33:04;;;;;;;1.70;0.30;;;;;;;;;;6241878;23;20375;-91
2024/03/18 09:35:30;;;;;;;3.05;0.70;;;;;;;;;;6241657;22;20540;-90
2024/03/18 09:37:55;;;;;;;2.85;0.52;;;;;;;;;;6214275;23;20487;-90
2024/03/18 09:40:21;;;;;;;3.28;0.43;;;;;;;;;;6242899;23;20433;-91
2024/03/18 09:42:46;;;;;;;3.33;0.65;;;;;;;;;;6214196;23;20050;-91
2024/03/18 09:45:18;;;;;;;3.63;0.53;;;;;;;;;;6241364;23;20000;-91
2024/03/18 09:47:45;;;;;;;3.47;0.73;;;;;;;;;;6241921;22;20221;-92
2024/03/18 09:50:13;;;;;;;4.18;0.60;;;;;;;;;;6241219;23;20022;-91
2024/03/18 09:52:40;;;;;;;3.03;0.50;;;;;;;;;;6241611;23;20035;-91
2024/03/18 09:55:27;;;;;;;5.90;0.70;;;;;;;;;;6241878;23;19996;-90
2024/03/18 09:57:55;;;;;;;3.33;0.40;;;;;;;;;;6242329;23;20008;-91
2024/03/18 10:00:20;;;;;;;2.47;0.32;;;;;;;;;;6241714;23;20403;-90
2024/03/18 10:02:46;;;;;;;3.38;0.50;;;;;;;;;;6241923;23;20004;-91
2024/03/18 10:05:11;;;;;;;3.63;0.38;;;;;;;;;;6242139;23;20008;-90
2024/03/18 10:07:37;;;;;;;5.95;0.63;;;;;;;;;;6241858;22;20089;-90
2024/03/18 10:10:04;;;;;;;2.05;0.70;;;;;;;;;;6214924;23;20011;-90
2024/03/18 10:12:29;;;;;;;4.45;0.40;;;;;;;;;;6214612;23;20027;-90
2024/03/18 10:14:55;;;;;;;2.80;0.60;;;;;;;;;;6239877;23;20008;-90
2024/03/18 10:17:20;;;;;;;2.95;0.52;;;;;;;;;;6240656;22;20092;-90
2024/03/18 10:19:45;;;;;;;4.87;0.50;;;;;;;;;;6242123;23;20008;-90
2024/03/18 10:22:11;;;;;;;1.75;0.60;;;;;;;;;;6242017;23;20699;-90
2024/03/18 10:24:38;;;;;;;2.35;1.25;;;;;;;;;;6240744;23;19999;-90
2024/03/18 10:27:03;;;;;;;2.10;0.43;;;;;;;;;;6241934;22;19997;-93
2024/03/18 10:29:29;;;;;;;5.93;0.45;;;;;;;;;;6240795;23;20071;-93
2024/03/18 10:31:54;;;;;;;4.67;0.50;;;;;;;;;;6242136;23;19992;-92
2024/03/18 10:34:20;;;;;;;2.15;0.47;;;;;;;;;;6237086;23;20611;-92
2024/03/18 10:36:49;;;;;;;2.45;0.32;;;;;;;;;;6215298;23;20010;-92
2024/03/18 10:39:16;;;;;;;3.50;0.77;;;;;;;;;;6241821;23;20019;-92
2024/03/18 10:41:43;;;;;;;3.70;0.60;;;;;;;;;;6242215;23;20050;-92
2024/03/18 10:44:14;;;;;;;6.32;0.75;;;;;;;;;;6241824;23;19992;-92
2024/03/18 10:46:40;;;;;;;3.58;0.55;;;;;;;;;;6215656;23;20000;-92
2024/03/18 10:49:07;;;;;;;0.73;0.10;;;;;;;;;;6240867;23;20011;-92
2024/03/18 10:51:32;;;;;;;0.88;0.30;;;;;;;;;;6240489;23;20000;-93
2024/03/18 10:53:59;;;;;;;1.30;0.30;;;;;;;;;;6215220;23;20490;-92
2024/03/18 10:56:24;;;;;;;3.13;0.32;;;;;;;;;;6241018;22;20424;-93
2024/03/18 10:58:50;;;;;;;0.60;0.20;;;;;;;;;;6215289;23;20085;-92
2024/03/18 11:01:15;;;;;;;3.17;0.88;;;;;;;;;;6240837;23;20007;-93
2024/03/18 11:03:48;;;;;;;2.22;0.40;;;;;;;;;;6214660;23;20504;-92
2024/03/18 11:06:15;;;;;;;4.25;0.20;;;;;;;;;;6240228;22;20000;-93
2024/03/18 11:08:41;;;;;;;3.88;0.40;;;;;;;;;;6240920;23;20069;-93
2024/03/18 11:11:06;;;;;;;0.77;0.20;;;;;;;;;;6215255;23;19996;-93
2024/03/18 11:13:32;;;;;;;3.28;1.48;;;;;;;;;;6240738;23;20427;-93
2024/03/18 11:16:03;;;;;;;6.38;0.70;;;;;;;;;;6240301;22;20086;-93
2024/03/18 11:18:28;;;;;;;3.70;0.45;;;;;;;;;;6240380;23;20254;-94
2024/03/18 11:20:57;;;;;;;5.45;0.63;;;;;;;;;;6241216;23;20175;-94
2024/03/18 11:23:23;;;;;;;3.05;0.57;;;;;;;;;;6241660;23;20092;-93
2024/03/18 11:28:16;;;;;;;4.63;0.40;;;;;;;;;;6241740;23;19969;-93
2024/03/18 11:30:42;;;;;;;0.77;0.23;;;;;;;;;;6241952;23;20431;-93
2024/03/18 11:33:08;;;;;;;3.90;0.57;;;;;;;;;;6241478;23;20679;-93
2024/03/18 11:35:34;;;;;;;0.50;0.10;;;;;;;;;;6214097;23;20000;-92
2024/03/18 11:37:59;;;;;;;1.00;0.20;;;;;;;;;;6241380;22;20050;-92
2024/03/18 11:40:25;;;;;;;0.45;0.05;;;;;;;;;;6241921;22;20008;-93
2024/03/18 11:42:50;;;;;;;2.15;0.20;;;;;;;;;;6239747;23;20039;-92
2024/03/18 11:45:16;;;;;;;2.37;0.30;;;;;;;;;;6241362;23;20407;-91
2024/03/18 11:47:41;;;;;;;2.08;0.30;;;;;;;;;;6239996;23;20230;-92
2024/03/18 11:50:07;;;;;;;3.47;0.63;;;;;;;;;;6240900;23;19996;-90
2024/03/18 11:52:33;;;;;;;2.92;0.52;;;;;;;;;;6239432;23;20225;-91
2024/03/18 11:54:58;;;;;;;2.45;0.30;;;;;;;;;;6239581;23;20030;-91
2024/03/18 11:57:23;;;;;;;2.38;0.95;;;;;;;;;;6239719;23;20090;-91
2024/03/18 11:59:49;;;;;;;1.85;0.40;;;;;;;;;;6241173;23;20004;-92
2024/03/18 12:02:15;;;;;;;1.50;0.20;;;;;;;;;;6240838;22;20004;-92
2024/03/18 12:04:40;;;;;;;2.20;0.30;;;;;;;;;;6241279;22;20419;-91
2024/03/18 12:07:07;;;;;;;1.13;0.22;;;;;;;;;;6240972;22;19992;-92
2024/03/18 12:09:34;;;;;;;1.40;0.28;;;;;;;;;;6240361;23;19996;-91
2024/03/18 12:12:00;;;;;;;2.58;0.20;;;;;;;;;;6240040;23;20071;-91
2024/03/18 12:14:25;;;;;;;2.78;0.30;;;;;;;;;;6239217;23;20011;-92
2024/03/18 12:16:54;;;;;;;2.90;0.52;;;;;;;;;;6239563;23;20339;-92
2024/03/18 12:19:19;;;;;;;2.38;0.25;;;;;;;;;;6241144;22;20092;-92
2024/03/18 12:21:47;;;;;;;1.75;0.20;;;;;;;;;;6241447;22;20024;-92
2024/03/18 12:29:41;;;;;;;1.65;0.25;;;;;;;;;;6241230;23;20031;-92
2024/03/18 12:32:10;;;;;;;2.15;0.35;;;;;;;;;;6240838;22;20000;-92
2024/03/18 12:34:35;;;;;;;2.40;0.50;;;;;;;;;;6238575;23;20000;-91
2024/03/18 12:37:01;;;;;;;3.40;0.65;;;;;;;;;;6240542;22;20335;-91
2024/03/18 12:39:29;;;;;;;4.30;0.47;;;;;;;;;;6241138;23;20349;-91
2024/03/18 12:42:02;;;;;;;4.45;0.80;;;;;;;;;;6239597;23;20004;-91
2024/03/18 12:44:27;;;;;;;3.28;0.60;;;;;;;;;;6239124;23;20035;-92
2024/03/18 12:46:53;;;;;;;2.67;0.40;;;;;;;;;;6240391;22;19992;-91
2024/03/18 12:49:18;;;;;;;2.65;0.50;;;;;;;;;;6241346;23;20000;-92
2024/03/18 12:51:43;;;;;;;4.20;0.68;;;;;;;;;;6240936;23;20003;-92
2024/03/18 12:54:09;;;;;;;3.40;0.88;;;;;;;;;;6239026;23;20011;-92
2024/03/18 12:56:34;;;;;;;2.00;0.40;;;;;;;;;;6240525;22;20385;-92
2024/03/18 12:58:59;;;;;;;3.47;0.75;;;;;;;;;;6238569;23;20099;-92
2024/03/18 13:01:25;;;;;;;2.25;0.40;;;;;;;;;;6241209;23;19996;-93
2024/03/18 13:03:51;;;;;;;1.90;0.47;;;;;;;;;;6242173;23;19996;-92
2024/03/18 13:06:18;;;;;;;6.07;0.98;;;;;;;;;;6241389;23;20004;-92
2024/03/18 13:08:43;;;;;;;3.47;0.77;;;;;;;;;;6240916;23;20007;-92
2024/03/18 13:11:12;;;;;;;5.72;0.82;;;;;;;;;;6241430;23;19996;-91
2024/03/18 13:13:43;;;;;;;2.67;0.40;;;;;;;;;;6241647;22;20003;-92
2024/03/18 13:16:09;;;;;;;3.45;0.47;;;;;;;;;;6240769;23;20019;-92
2024/03/18 13:18:35;;;;;;;3.13;0.40;;;;;;;;;;6240473;23;20008;-92
2024/03/18 13:21:00;;;;;;;6.90;0.83;;;;;;;;;;6244251;23;20004;-93
2024/03/18 13:23:32;;;;;;;5.85;0.50;;;;;;;;;;6245642;23;20296;-93
2024/03/18 13:25:59;;;;;;;5.28;0.80;;;;;;;;;;6250861;23;20406;-94
2024/03/18 13:28:24;;;;;;;5.35;0.60;;;;;;;;;;6243916;23;20011;-94
2024/03/18 13:30:49;;;;;;;3.67;0.77;;;;;;;;;;6244379;23;20000;-93
2024/03/18 13:33:16;;;;;;;2.08;0.52;;;;;;;;;;6244077;23;20000;-93
2024/03/18 13:35:42;;;;;;;3.13;0.90;;;;;;;;;;6241445;22;20004;-93
2024/03/18 13:38:08;;;;;;;4.47;0.60;;;;;;;;;;6237215;22;20334;-93
2024/03/18 13:40:33;;;;;;;3.15;0.60;;;;;;;;;;6241230;22;20319;-93
2024/03/18 13:42:58;;;;;;;1.95;0.57;;;;;;;;;;6238936;23;20004;-92
2024/03/18 13:45:24;;;;;;;1.63;0.40;;;;;;;;;;6240157;22;19996;-92
2024/03/18 13:47:53;;;;;;;2.92;0.40;;;;;;;;;;6240955;22;20004;-93
2024/03/18 13:50:24;;;;;;;3.65;0.77;;;;;;;;;;6238505;23;20039;-93
2024/03/18 13:52:49;;;;;;;4.60;0.52;;;;;;;;;;6241433;22;19996;-92
2024/03/18 13:55:14;;;;;;;2.70;0.43;;;;;;;;;;6238009;23;19996;-93
2024/03/18 13:57:40;;;;;;;4.07;0.55;;;;;;;;;;6238988;23;20332;-92
2024/03/18 14:00:10;;;;;;;5.40;0.77;;;;;;;;;;6238466;23;20000;-93
2024/03/18 14:02:36;;;;;;;3.65;0.80;;;;;;;;;;6238519;23;20586;-93
2024/03/18 14:05:01;;;;;;;3.88;0.70;;;;;;;;;;6238231;23;20008;-92
2024/03/18 14:07:26;;;;;;;5.60;0.47;;;;;;;;;;6238103;23;20074;-94
2024/03/18 14:09:52;;;;;;;7.57;1.00;;;;;;;;;;6239747;23;20417;-92
2024/03/18 14:12:21;;;;;;;12.30;0.90;;;;;;;;;;6239248;23;20222;-92
2024/03/18 14:14:46;;;;;;;3.00;0.50;;;;;;;;;;6241242;23;20094;-89
2024/03/18 14:17:13;;;;;;;2.55;0.55;;;;;;;;;;6242973;22;20000;-92
2024/03/18 14:19:38;;;;;;;7.15;1.10;;;;;;;;;;6238396;23;20336;-92
2024/03/18 14:22:03;;;;;;;7.07;0.80;;;;;;;;;;6235415;23;20006;-94
2024/03/18 14:24:29;;;;;;;5.15;0.95;;;;;;;;;;6238517;22;20091;-92
2024/03/18 14:26:54;;;;;;;4.22;1.20;;;;;;;;;;6239505;22;20008;-92
2024/03/18 14:29:20;;;;;;;5.32;0.82;;;;;;;;;;6237819;23;20323;-95
2024/03/18 14:31:46;;;;;;;3.70;0.82;;;;;;;;;;6238232;23;20031;-91
2024/03/18 14:34:11;;;;;;;6.60;1.55;;;;;;;;;;6239225;22;20004;-92
2024/03/18 14:36:36;;;;;;;7.15;1.15;;;;;;;;;;6236698;23;20091;-93
2024/03/18 14:39:05;;;;;;;6.20;1.10;;;;;;;;;;6235751;23;20387;-94